Time;durP1;ratioP1;P1;durP2;ratioP2;P2;SDS_P1;SDS_P2;PMS_P1;PMS_P2;Temp;Humidity;BMP_temperature;BMP_pressure;BME280_temperature;BME280_humidity;BME280_pressure;Samples;Min_cycle;Max_cycle;Signal;HPM_P1;HPM_P2
2022/07/03 00:00:06;;;;;;;4.43;1.80;;;;;;;19.49;63.85;99635.19;345485;28;1173;-80
2022/07/03 00:00:18;;;;;;;3.88;1.65;;;;;;;19.48;63.23;99637.97;344715;28;1945;-81
2022/07/03 00:00:30;;;;;;;1.67;1.58;;;;;;;19.47;63.09;99637.09;346586;28;1184;-80
2022/07/03 00:00:42;;;;;;;2.53;1.60;;;;;;;19.45;62.85;99633.72;345621;28;2162;-80
2022/07/03 00:00:54;;;;;;;2.63;1.52;;;;;;;19.45;62.79;99640.81;347078;28;1751;-80
2022/07/03 00:01:06;;;;;;;2.92;1.40;;;;;;;19.45;62.71;99639.00;346627;28;1106;-80
2022/07/03 00:01:19;;;;;;;4.13;1.40;;;;;;;19.45;62.75;99644.28;346870;28;1664;-80
2022/07/03 00:01:31;;;;;;;4.35;1.55;;;;;;;19.44;62.67;99639.97;347230;28;1968;-80
2022/07/03 00:01:43;;;;;;;4.75;1.60;;;;;;;19.43;62.92;99640.91;347187;28;1304;-80
2022/07/03 00:01:55;;;;;;;5.05;1.60;;;;;;;19.41;63.21;99640.16;347513;28;1070;-80
2022/07/03 00:02:07;;;;;;;3.92;1.67;;;;;;;19.39;63.36;99634.16;346306;28;1037;-80
2022/07/03 00:02:19;;;;;;;2.60;1.70;;;;;;;19.39;63.58;99644.69;345818;28;1010;-80
2022/07/03 00:02:31;;;;;;;4.20;1.80;;;;;;;19.39;63.78;99639.44;347735;28;1087;-80
2022/07/03 00:02:43;;;;;;;3.30;1.70;;;;;;;19.36;64.11;99634.38;346482;28;1232;-80
2022/07/03 00:02:55;;;;;;;2.92;1.52;;;;;;;19.35;63.99;99633.53;346512;28;1199;-80
2022/07/03 00:03:07;;;;;;;1.52;1.42;;;;;;;19.36;64.14;99644.94;346559;28;1915;-80
2022/07/03 00:03:20;;;;;;;3.85;1.70;;;;;;;19.35;64.39;99640.59;346318;28;1054;-80
2022/07/03 00:03:32;;;;;;;4.40;1.85;;;;;;;19.34;64.25;99637.13;346519;28;1050;-80
2022/07/03 00:03:44;;;;;;;4.13;2.00;;;;;;;19.35;64.38;99643.22;346615;28;1636;-80
2022/07/03 00:03:56;;;;;;;3.38;1.80;;;;;;;19.36;64.52;99637.03;347390;28;1628;-80
2022/07/03 00:04:08;;;;;;;2.83;1.80;;;;;;;19.36;64.27;99635.22;346271;28;1038;-80
2022/07/03 00:04:20;;;;;;;2.38;1.73;;;;;;;19.36;64.79;99634.38;346335;28;1062;-80
2022/07/03 00:04:32;;;;;;;2.42;1.80;;;;;;;19.36;64.43;99637.03;345576;28;1079;-80
2022/07/03 00:04:44;;;;;;;2.20;1.70;;;;;;;19.37;64.40;99636.06;346512;28;1117;-80
2022/07/03 00:04:56;;;;;;;3.20;1.70;;;;;;;19.36;65.06;99637.03;345123;28;1055;-80
2022/07/03 00:05:09;;;;;;;2.80;1.60;;;;;;;19.38;64.75;99635.13;346225;28;1193;-80
2022/07/03 00:05:21;;;;;;;1.85;1.45;;;;;;;19.40;64.88;99640.25;346449;28;1197;-80
2022/07/03 00:05:36;;;;;;;2.42;1.60;;;;;;;19.38;64.91;99639.53;345075;28;1117;-80
2022/07/03 00:05:48;;;;;;;3.20;1.70;;;;;;;19.37;64.64;99641.34;345075;28;1320;-80
2022/07/03 00:06:00;;;;;;;3.63;1.70;;;;;;;19.36;64.50;99637.84;343645;28;1706;-80
2022/07/03 00:06:12;;;;;;;3.00;1.63;;;;;;;19.38;64.52;99642.16;344334;28;1107;-80
2022/07/03 00:06:26;;;;;;;2.58;1.65;;;;;;;19.37;64.41;99638.69;344862;28;1124;-80
2022/07/03 00:06:38;;;;;;;2.58;1.63;;;;;;;19.37;64.49;99636.06;344835;28;1252;-80
2022/07/03 00:06:53;;;;;;;3.03;1.70;;;;;;;19.38;64.33;99637.75;343613;28;1035;-80
2022/07/03 00:07:05;;;;;;;3.03;1.70;;;;;;;19.39;64.27;99638.59;345014;28;1272;-80
2022/07/03 00:07:17;;;;;;;2.20;1.60;;;;;;;19.40;64.40;99635.84;344929;28;1197;-80
2022/07/03 00:07:31;;;;;;;2.75;1.60;;;;;;;19.41;64.29;99636.69;343513;28;1325;-80
2022/07/03 00:07:43;;;;;;;3.95;1.80;;;;;;;19.42;64.30;99638.38;343654;28;1060;-80
2022/07/03 00:07:55;;;;;;;5.30;1.80;;;;;;;19.42;64.01;99641.88;343729;28;1256;-80
2022/07/03 00:08:07;;;;;;;4.65;1.85;;;;;;;19.44;64.19;99642.59;343773;28;948;-80
2022/07/03 00:08:19;;;;;;;3.65;1.70;;;;;;;19.45;63.95;99639.00;343814;28;1561;-80
2022/07/03 00:08:30;;;;;;;3.30;1.52;;;;;;;19.46;63.95;99639.88;343219;28;1662;-80
2022/07/03 00:08:43;;;;;;;3.55;1.50;;;;;;;19.46;63.86;99634.59;343070;28;1215;-80
2022/07/03 00:08:55;;;;;;;2.90;1.60;;;;;;;19.45;63.92;99641.63;344022;28;1567;-80
2022/07/03 00:09:07;;;;;;;3.15;1.70;;;;;;;19.44;63.83;99633.88;343489;28;1230;-80
2022/07/03 00:09:19;;;;;;;2.92;1.70;;;;;;;19.42;63.79;99638.38;343661;28;1531;-81
2022/07/03 00:09:31;;;;;;;3.13;1.70;;;;;;;19.43;63.63;99633.00;344398;28;745;-80
2022/07/03 00:09:43;;;;;;;2.35;1.60;;;;;;;19.44;63.66;99636.50;344941;28;1108;-80
2022/07/03 00:09:55;;;;;;;2.15;1.60;;;;;;;19.45;63.55;99639.00;344980;28;1205;-80
2022/07/03 00:10:08;;;;;;;1.77;1.52;;;;;;;19.45;63.89;99633.72;346273;28;1102;-80
2022/07/03 00:10:20;;;;;;;2.28;1.60;;;;;;;19.43;64.43;99634.78;345726;28;1271;-80
2022/07/03 00:10:32;;;;;;;3.80;1.70;;;;;;;19.44;64.35;99637.34;346724;28;1114;-80
2022/07/03 00:10:44;;;;;;;3.78;1.67;;;;;;;19.44;64.28;99637.34;348185;28;1162;-80
2022/07/03 00:10:56;;;;;;;2.97;1.70;;;;;;;19.46;64.34;99639.88;347633;28;1155;-80
2022/07/03 00:11:09;;;;;;;2.92;1.70;;;;;;;19.43;65.01;99633.00;347703;28;1126;-80
2022/07/03 00:11:21;;;;;;;3.63;1.70;;;;;;;19.43;64.72;99635.63;348113;28;1047;-80
2022/07/03 00:11:33;;;;;;;2.65;1.60;;;;;;;19.42;65.15;99639.22;348084;28;1355;-80
2022/07/03 00:11:45;;;;;;;2.30;1.63;;;;;;;19.42;65.00;99636.59;347935;28;1145;-80
2022/07/03 00:11:57;;;;;;;2.97;1.60;;;;;;;19.43;65.22;99640.91;347547;28;1253;-80
2022/07/03 00:12:09;;;;;;;4.38;1.70;;;;;;;19.43;65.06;99638.28;348065;28;1367;-80
2022/07/03 00:12:21;;;;;;;4.65;1.70;;;;;;;19.43;65.33;99646.19;347991;28;1085;-80
2022/07/03 00:12:34;;;;;;;3.78;1.75;;;;;;;19.42;65.43;99633.97;347824;28;2058;-80
2022/07/03 00:12:46;;;;;;;3.80;1.80;;;;;;;19.44;65.30;99636.50;348337;28;1529;-80
2022/07/03 00:12:58;;;;;;;4.30;1.73;;;;;;;19.45;65.37;99632.91;348040;28;1227;-80
2022/07/03 00:13:10;;;;;;;3.33;1.55;;;;;;;19.45;64.97;99640.81;348288;28;1109;-80
2022/07/03 00:13:22;;;;;;;2.90;1.60;;;;;;;19.43;65.02;99635.63;347914;28;1815;-80
2022/07/03 00:13:34;;;;;;;2.30;1.70;;;;;;;19.45;65.33;99641.63;346960;28;1834;-80
2022/07/03 00:13:46;;;;;;;2.55;1.70;;;;;;;19.41;65.13;99637.53;345967;28;1670;-80
2022/07/03 00:13:59;;;;;;;2.40;1.73;;;;;;;19.43;64.66;99633.00;346989;28;1473;-80
2022/07/03 00:14:12;;;;;;;2.42;1.77;;;;;;;19.42;65.12;99639.22;346320;28;1159;-80
2022/07/03 00:14:24;;;;;;;3.25;1.83;;;;;;;19.43;65.12;99635.63;346421;28;1059;-80
2022/07/03 00:14:36;;;;;;;3.15;1.80;;;;;;;19.43;65.15;99634.78;346279;28;1033;-80
2022/07/03 00:14:50;;;;;;;2.38;1.60;;;;;;;19.43;65.16;99635.63;345362;28;1835;-80
2022/07/03 00:15:03;;;;;;;2.20;1.48;;;;;;;19.43;64.87;99635.63;345300;28;1818;-80
2022/07/03 00:15:15;;;;;;;3.88;1.55;;;;;;;19.43;64.87;99635.63;345505;28;1075;-80
2022/07/03 00:15:27;;;;;;;4.05;1.60;;;;;;;19.45;64.78;99644.28;345475;28;1196;-80
2022/07/03 00:15:39;;;;;;;3.47;1.70;;;;;;;19.45;64.69;99632.91;347605;28;1260;-80
2022/07/03 00:15:51;;;;;;;2.20;1.60;;;;;;;19.44;64.69;99637.34;347718;28;1509;-80
2022/07/03 00:16:03;;;;;;;4.03;1.70;;;;;;;19.45;64.61;99633.72;348038;28;1732;-80
2022/07/03 00:16:16;;;;;;;4.10;1.80;;;;;;;19.45;64.56;99639.00;347180;28;2098;-80
2022/07/03 00:16:29;;;;;;;4.88;1.80;;;;;;;19.44;64.64;99637.34;347009;28;1070;-80
2022/07/03 00:16:41;;;;;;;3.30;1.63;;;;;;;19.45;64.32;99641.63;346640;28;1371;-80
2022/07/03 00:16:53;;;;;;;2.28;1.52;;;;;;;19.43;64.10;99635.63;345686;28;1939;-80
2022/07/03 00:17:05;;;;;;;2.60;1.67;;;;;;;19.42;64.21;99639.22;345635;28;1427;-79
2022/07/03 00:17:17;;;;;;;3.70;1.80;;;;;;;19.42;64.27;99639.22;346445;28;1085;-80
2022/07/03 00:17:29;;;;;;;3.95;1.95;;;;;;;19.43;64.82;99640.91;346450;28;2069;-81
2022/07/03 00:17:41;;;;;;;3.53;1.90;;;;;;;19.42;64.30;99639.22;346383;28;1082;-80
2022/07/03 00:17:53;;;;;;;2.83;1.80;;;;;;;19.43;64.32;99640.91;346635;28;1070;-81
2022/07/03 00:18:05;;;;;;;2.65;1.80;;;;;;;19.43;63.95;99643.53;345102;28;1198;-80
2022/07/03 00:18:17;;;;;;;2.15;1.70;;;;;;;19.41;63.86;99640.16;345123;28;1191;-80
2022/07/03 00:18:29;;;;;;;1.90;1.70;;;;;;;19.38;63.07;99637.75;344366;28;1640;-80
2022/07/03 00:18:41;;;;;;;1.80;1.70;;;;;;;19.38;63.81;99637.75;345208;28;1696;-80
2022/07/03 00:18:53;;;;;;;2.10;1.80;;;;;;;19.40;63.89;99641.13;345423;28;1248;-80
2022/07/03 00:19:07;;;;;;;3.22;1.90;;;;;;;19.41;63.82;99639.34;346998;28;1570;-80
2022/07/03 00:19:19;;;;;;;2.55;1.75;;;;;;;19.41;63.65;99642.81;345004;28;1048;-80
2022/07/03 00:19:31;;;;;;;2.20;1.73;;;;;;;19.39;64.07;99636.78;344659;28;1054;-81
2022/07/03 00:19:43;;;;;;;2.22;1.80;;;;;;;19.41;64.37;99637.53;344082;28;1079;-80
2022/07/03 00:19:55;;;;;;;3.28;1.95;;;;;;;19.39;64.42;99638.59;341036;28;1983;-80
2022/07/03 00:20:08;;;;;;;3.63;2.10;;;;;;;19.38;64.48;99643.03;342365;28;1175;-80
2022/07/03 00:20:20;;;;;;;4.93;2.08;;;;;;;19.38;64.10;99640.41;342694;28;1168;-80
2022/07/03 00:20:40;;;;;;;4.33;1.93;;;;;;;19.39;64.03;99639.44;341193;29;1270;-80
2022/07/03 00:21:03;;;;;;;2.50;1.63;;;;;;;19.39;64.08;99638.59;341249;29;1057;-80
2022/07/03 00:21:20;;;;;;;3.25;1.92;;;;;;;19.38;64.54;99632.50;341130;29;1013;-80
2022/07/03 00:21:41;;;;;;;4.80;2.00;;;;;;;19.38;64.18;99637.75;343371;28;1675;-80
2022/07/03 00:21:56;;;;;;;2.80;1.90;;;;;;;19.38;64.57;99636.91;345369;28;1141;-80
2022/07/03 00:22:12;;;;;;;3.00;1.90;;;;;;;19.38;64.36;99639.53;346381;28;1694;-80
2022/07/03 00:22:25;;;;;;;3.97;1.90;;;;;;;19.34;64.71;99638.94;348004;28;1082;-80
2022/07/03 00:22:42;;;;;;;3.75;2.00;;;;;;;19.32;64.47;99638.19;348325;28;1073;-80
2022/07/03 00:22:55;;;;;;;2.47;2.00;;;;;;;19.32;64.61;99639.03;348235;28;1066;-80
2022/07/03 00:23:10;;;;;;;2.40;1.73;;;;;;;19.32;64.53;99640.81;347316;28;770;-80
2022/07/03 00:23:22;;;;;;;2.83;1.60;;;;;;;19.30;65.13;99640.09;347745;28;1172;-80
2022/07/03 00:24:07;;;;;;;3.10;1.75;;;;;;;19.29;65.41;99643.66;347813;28;1573;-80
2022/07/03 00:24:24;;;;;;;2.10;1.88;;;;;;;19.28;65.39;99640.19;347108;28;838;-80
2022/07/03 00:24:45;;;;;;;2.33;2.00;;;;;;;19.28;65.72;99639.34;345915;28;1814;-80
2022/07/03 00:25:06;;;;;;;3.15;2.10;;;;;;;19.29;65.65;99643.66;345899;28;1887;-81
2022/07/03 00:25:19;;;;;;;2.55;1.75;;;;;;;19.27;65.54;99642.91;345510;28;1748;-80
2022/07/03 00:25:33;;;;;;;3.72;1.80;;;;;;;19.28;65.18;99647.25;346605;28;1042;-80
2022/07/03 00:25:47;;;;;;;3.72;1.83;;;;;;;19.29;65.38;99643.66;345167;28;1152;-80
2022/07/03 00:26:01;;;;;;;2.97;1.70;;;;;;;19.29;64.67;99641.03;345298;28;1129;-80
2022/07/03 00:26:13;;;;;;;3.83;1.60;;;;;;;19.29;64.44;99644.50;343688;28;1142;-80
2022/07/03 00:26:29;;;;;;;3.22;1.60;;;;;;;19.30;63.80;99640.09;345359;28;1203;-80
2022/07/03 00:26:44;;;;;;;2.20;1.80;;;;;;;19.29;64.29;99641.03;344724;28;1493;-80
2022/07/03 00:26:58;;;;;;;2.25;1.90;;;;;;;19.28;64.20;99644.63;344453;28;1210;-80
2022/07/03 00:27:11;;;;;;;2.67;1.80;;;;;;;19.28;64.69;99634.06;344451;28;1480;-80
2022/07/03 00:27:25;;;;;;;2.47;1.80;;;;;;;19.29;64.42;99638.38;344596;28;1060;-80
2022/07/03 00:27:38;;;;;;;2.53;1.80;;;;;;;19.28;64.80;99641.97;343780;28;1043;-80
2022/07/03 00:27:50;;;;;;;2.95;1.80;;;;;;;19.26;64.84;99634.19;345041;28;1015;-80
2022/07/03 00:28:03;;;;;;;3.30;1.83;;;;;;;19.26;64.51;99644.72;344281;28;1235;-80
2022/07/03 00:28:19;;;;;;;3.10;1.80;;;;;;;19.26;64.46;99635.97;344771;28;1074;-80
2022/07/03 00:28:32;;;;;;;2.42;1.70;;;;;;;19.25;64.79;99637.75;345771;28;836;-80
2022/07/03 00:28:45;;;;;;;2.28;1.75;;;;;;;19.25;64.97;99634.28;345236;28;1197;-80
2022/07/03 00:29:00;;;;;;;2.20;1.77;;;;;;;19.26;64.46;99638.63;345473;28;1180;-80
2022/07/03 00:29:12;;;;;;;2.88;1.70;;;;;;;19.25;64.33;99637.75;346648;28;1058;-80
2022/07/03 00:29:30;;;;;;;2.38;1.60;;;;;;;19.26;63.92;99638.63;344355;28;1076;-80
2022/07/03 00:29:44;;;;;;;2.90;1.75;;;;;;;19.28;63.89;99636.72;346394;28;1217;-80
2022/07/03 00:29:59;;;;;;;4.65;1.90;;;;;;;19.29;63.71;99638.38;346180;28;1197;-80
2022/07/03 00:30:11;;;;;;;5.53;1.92;;;;;;;19.29;63.46;99638.38;346371;28;1074;-80
2022/07/03 00:30:24;;;;;;;3.95;1.85;;;;;;;19.29;63.58;99633.94;347325;28;2069;-80
2022/07/03 00:30:37;;;;;;;3.58;1.73;;;;;;;19.28;64.46;99641.97;346962;28;1097;-80
2022/07/03 00:30:50;;;;;;;3.00;1.67;;;;;;;19.28;64.92;99636.72;346652;28;1976;-81
2022/07/03 00:31:02;;;;;;;2.63;1.60;;;;;;;19.27;64.52;99638.47;347629;28;1475;-80
2022/07/03 00:31:19;;;;;;;1.90;1.60;;;;;;;19.29;64.26;99643.66;347885;28;1115;-81
2022/07/03 00:31:32;;;;;;;2.65;1.70;;;;;;;19.27;64.35;99640.28;348000;28;1047;-80
2022/07/03 00:31:46;;;;;;;3.30;1.83;;;;;;;19.26;64.75;99638.63;348544;28;926;-80
2022/07/03 00:32:00;;;;;;;2.88;1.80;;;;;;;19.36;64.13;99639.66;348106;28;1238;-80
2022/07/03 00:32:39;;;;;;;3.65;1.70;;;;;;;19.39;63.92;99635.97;348351;28;1163;-80
2022/07/03 00:32:52;;;;;;;3.03;1.63;;;;;;;19.41;63.58;99634.91;345883;28;1791;-80
2022/07/03 00:33:05;;;;;;;3.88;1.63;;;;;;;19.41;63.79;99631.44;347882;28;1204;-80
2022/07/03 00:33:18;;;;;;;2.75;1.70;;;;;;;19.41;63.93;99642.81;346858;28;1650;-80
2022/07/03 00:33:34;;;;;;;1.90;1.63;;;;;;;19.43;63.91;99638.28;347130;28;818;-80
2022/07/03 00:33:46;;;;;;;4.10;1.65;;;;;;;19.42;63.92;99633.09;347282;28;1034;-80
2022/07/03 00:34:00;;;;;;;4.93;1.80;;;;;;;19.43;63.83;99634.78;347217;28;1094;-80
2022/07/03 00:34:15;;;;;;;4.10;1.90;;;;;;;19.42;63.87;99639.22;348345;28;1106;-80
2022/07/03 00:34:29;;;;;;;2.88;1.90;;;;;;;19.41;64.01;99632.25;348610;28;1220;-80
2022/07/03 00:34:42;;;;;;;2.50;1.85;;;;;;;19.41;64.34;99636.69;347647;28;1521;-80
2022/07/03 00:34:56;;;;;;;2.95;1.65;;;;;;;19.44;64.31;99639.13;348016;28;1167;-80
2022/07/03 00:35:09;;;;;;;2.72;1.63;;;;;;;19.43;63.92;99634.78;346496;28;1073;-79
2022/07/03 00:35:21;;;;;;;3.40;1.70;;;;;;;19.43;63.83;99635.63;346238;28;1062;-80
2022/07/03 00:35:37;;;;;;;2.80;1.80;;;;;;;19.44;63.56;99634.69;346367;28;1066;-80
2022/07/03 00:35:54;;;;;;;3.15;1.80;;;;;;;19.44;63.41;99637.34;346444;28;1134;-80
2022/07/03 00:36:06;;;;;;;2.83;1.80;;;;;;;19.44;63.63;99632.06;346672;28;1173;-81
2022/07/03 00:36:22;;;;;;;2.08;1.75;;;;;;;19.45;64.04;99638.16;347682;28;1075;-80
2022/07/03 00:36:36;;;;;;;4.05;1.95;;;;;;;19.44;64.36;99634.69;347895;28;1500;-80
2022/07/03 00:36:49;;;;;;;4.20;1.90;;;;;;;19.43;64.48;99640.06;347365;28;1880;-80
2022/07/03 00:37:01;;;;;;;2.00;1.75;;;;;;;19.43;64.64;99638.28;347555;28;1371;-80
2022/07/03 00:37:20;;;;;;;2.95;1.80;;;;;;;19.44;64.61;99632.06;349557;28;1069;-80
2022/07/03 00:37:33;;;;;;;3.10;1.80;;;;;;;19.44;64.54;99637.34;348947;28;1708;-80
2022/07/03 00:37:45;;;;;;;2.15;1.75;;;;;;;19.45;64.72;99633.72;346243;28;1020;-80
2022/07/03 00:37:57;;;;;;;1.70;1.60;;;;;;;19.44;64.34;99631.22;346695;28;1423;-80
2022/07/03 00:38:11;;;;;;;3.50;1.70;;;;;;;19.43;64.03;99638.28;347855;28;2003;-80
2022/07/03 00:38:24;;;;;;;3.75;1.80;;;;;;;19.44;63.70;99637.34;347402;28;1031;-80
2022/07/03 00:38:36;;;;;;;2.55;1.77;;;;;;;19.41;64.22;99632.25;347014;28;996;-80
2022/07/03 00:38:49;;;;;;;3.05;1.90;;;;;;;19.40;64.27;99629.72;346145;28;1284;-80
2022/07/03 00:39:02;;;;;;;3.05;1.80;;;;;;;19.38;64.49;99635.13;345991;28;1244;-80
2022/07/03 00:39:14;;;;;;;4.88;1.85;;;;;;;19.38;64.51;99637.75;346450;28;1143;-80
2022/07/03 00:39:26;;;;;;;5.70;1.83;;;;;;;19.37;64.66;99641.34;346690;28;1272;-80
2022/07/03 00:39:42;;;;;;;3.85;1.85;;;;;;;19.38;64.71;99632.50;346588;28;1059;-80
2022/07/03 00:39:54;;;;;;;2.95;1.90;;;;;;;19.35;64.33;99638.78;346785;28;929;-80
2022/07/03 00:40:07;;;;;;;2.75;1.90;;;;;;;19.37;64.38;99636.06;349217;28;1198;-80
2022/07/03 00:40:19;;;;;;;2.20;1.70;;;;;;;19.38;64.00;99636.91;348047;28;1250;-80
2022/07/03 00:40:31;;;;;;;2.33;1.60;;;;;;;19.38;63.80;99637.75;348044;28;1259;-80
2022/07/03 00:40:43;;;;;;;2.58;1.70;;;;;;;19.39;63.53;99628.88;346509;28;1034;-81
2022/07/03 00:40:55;;;;;;;2.47;1.80;;;;;;;19.40;63.68;99630.59;345872;28;1415;-80
2022/07/03 00:41:08;;;;;;;2.05;1.80;;;;;;;19.42;63.46;99633.09;346479;28;1090;-80
2022/07/03 00:41:31;;;;;;;2.10;1.80;;;;;;;19.41;63.75;99632.25;347213;28;1518;-80
2022/07/03 00:41:45;;;;;;;3.17;1.85;;;;;;;19.40;63.74;99635.84;345149;28;1090;-80
2022/07/03 00:42:01;;;;;;;2.47;1.80;;;;;;;19.26;64.60;99628.91;346233;28;1596;-80
2022/07/03 00:42:13;;;;;;;2.75;1.77;;;;;;;19.25;64.40;99639.53;346452;28;1165;-80
2022/07/03 00:42:27;;;;;;;3.47;1.70;;;;;;;19.22;64.73;99631.88;345984;28;1796;-80
2022/07/03 00:42:39;;;;;;;3.92;1.70;;;;;;;19.20;64.53;99639.03;345318;28;1062;-80
2022/07/03 00:42:51;;;;;;;3.70;1.83;;;;;;;19.19;64.72;99637.34;347097;28;1616;-80
2022/07/03 00:43:04;;;;;;;3.78;1.85;;;;;;;19.18;64.61;99630.41;348620;28;1302;-80
2022/07/03 00:43:19;;;;;;;3.78;1.88;;;;;;;19.18;64.76;99635.66;346256;28;2191;-80
2022/07/03 00:43:32;;;;;;;2.90;1.77;;;;;;;19.16;64.53;99633.97;346591;28;1063;-80
2022/07/03 00:43:43;;;;;;;2.75;1.70;;;;;;;19.13;64.75;99634.16;346551;28;2719;-80
2022/07/03 00:43:57;;;;;;;2.22;1.60;;;;;;;19.13;64.81;99638.59;346678;28;1136;-80
2022/07/03 00:44:09;;;;;;;1.85;1.58;;;;;;;19.13;64.98;99636.78;346173;28;1209;-80
2022/07/03 00:44:21;;;;;;;1.90;1.65;;;;;;;19.14;64.45;99635.03;345481;28;1235;-80
2022/07/03 00:44:43;;;;;;;2.42;1.80;;;;;;;19.13;64.60;99639.44;345372;28;1207;-80
2022/07/03 00:44:56;;;;;;;4.18;1.80;;;;;;;19.09;64.98;99632.69;346092;28;1570;-80
2022/07/03 00:45:09;;;;;;;3.38;1.73;;;;;;;19.11;64.94;99637.84;345770;28;1665;-80
2022/07/03 00:45:21;;;;;;;4.30;1.70;;;;;;;19.09;65.11;99635.31;345857;28;748;-80
2022/07/03 00:45:34;;;;;;;3.20;1.75;;;;;;;19.10;64.53;99633.53;345242;28;1701;-80
2022/07/03 00:45:48;;;;;;;1.95;1.85;;;;;;;19.09;64.23;99635.31;345019;28;1647;-80
2022/07/03 00:46:08;;;;;;;2.20;2.00;;;;;;;19.10;64.22;99641.44;346918;28;1490;-80
2022/07/03 00:46:23;;;;;;;3.17;1.70;;;;;;;19.10;64.36;99633.53;347616;28;1222;-80
2022/07/03 00:46:41;;;;;;;3.00;1.70;;;;;;;19.10;64.13;99633.53;349249;28;1906;-80
2022/07/03 00:46:55;;;;;;;2.58;1.70;;;;;;;19.10;64.37;99638.81;348261;28;1949;-80
2022/07/03 00:47:08;;;;;;;2.72;1.80;;;;;;;19.09;64.66;99631.84;348026;28;1176;-80
2022/07/03 00:47:23;;;;;;;3.50;1.77;;;;;;;19.10;64.68;99634.38;346469;28;1169;-80
2022/07/03 00:47:36;;;;;;;4.68;1.80;;;;;;;19.10;64.49;99634.38;346380;28;1151;-80
2022/07/03 00:47:48;;;;;;;3.40;1.80;;;;;;;19.10;64.60;99634.38;347280;28;1600;-80
2022/07/03 00:48:00;;;;;;;2.42;1.85;;;;;;;19.09;65.06;99637.94;347313;28;1863;-80
2022/07/03 00:48:14;;;;;;;2.22;1.90;;;;;;;19.10;64.81;99638.81;346138;28;1249;-80
2022/07/03 00:48:26;;;;;;;3.20;1.80;;;;;;;19.09;64.65;99632.69;344964;28;1199;-80
2022/07/03 00:48:39;;;;;;;2.65;1.60;;;;;;;19.10;64.78;99634.38;344971;28;1214;-80
2022/07/03 00:48:53;;;;;;;3.10;1.65;;;;;;;19.09;64.86;99632.69;344205;28;1624;-80
2022/07/03 00:49:08;;;;;;;3.40;1.70;;;;;;;19.10;64.77;99644.94;343633;28;1311;-80
2022/07/03 00:49:23;;;;;;;2.42;1.70;;;;;;;19.11;64.87;99646.59;344193;28;1643;-80
2022/07/03 00:49:35;;;;;;;4.05;1.80;;;;;;;19.12;64.97;99642.19;344001;28;1067;-80
2022/07/03 00:49:53;;;;;;;4.10;2.00;;;;;;;19.10;64.77;99644.09;344112;28;1793;-80
2022/07/03 00:50:07;;;;;;;4.15;1.98;;;;;;;19.08;64.81;99636.28;345187;28;1494;-80
2022/07/03 00:50:25;;;;;;;3.72;1.80;;;;;;;19.07;64.98;99637.22;345565;28;796;-80
2022/07/03 00:50:45;;;;;;;2.53;1.67;;;;;;;19.06;65.09;99638.19;346104;28;1043;-80
2022/07/03 00:50:59;;;;;;;3.58;1.75;;;;;;;19.08;64.80;99643.34;347523;28;1434;-80
2022/07/03 00:51:14;;;;;;;2.50;1.70;;;;;;;19.06;64.63;99638.19;347901;28;1138;-80
2022/07/03 00:51:28;;;;;;;2.03;1.73;;;;;;;19.06;64.43;99638.19;349178;28;1277;-80
2022/07/03 00:51:42;;;;;;;2.10;1.90;;;;;;;19.06;64.62;99638.19;349482;28;1253;-80
2022/07/03 00:51:56;;;;;;;3.83;1.80;;;;;;;19.06;64.89;99638.19;348324;28;1645;-80
2022/07/03 00:52:13;;;;;;;3.67;1.70;;;;;;;19.04;65.04;99628.69;349227;28;1110;-81
2022/07/03 00:52:25;;;;;;;1.90;1.70;;;;;;;19.02;65.36;99639.34;348906;28;1030;-80
2022/07/03 00:52:38;;;;;;;2.15;1.95;;;;;;;18.99;65.19;99636.91;347817;28;1202;-80
2022/07/03 00:52:52;;;;;;;2.70;1.90;;;;;;;19.01;65.10;99635.00;346988;28;1720;-80
2022/07/03 00:53:08;;;;;;;2.50;1.65;;;;;;;18.99;65.53;99636.91;346466;28;1794;-80
2022/07/03 00:53:29;;;;;;;2.55;1.67;;;;;;;18.98;65.93;99629.94;346617;28;1055;-80
2022/07/03 00:53:42;;;;;;;2.90;1.70;;;;;;;18.99;65.99;99641.31;347011;28;2040;-80
2022/07/03 00:53:59;;;;;;;2.25;1.73;;;;;;;19.02;65.92;99636.69;347745;28;1781;-80
2022/07/03 00:54:17;;;;;;;2.63;1.77;;;;;;;19.02;65.46;99641.97;348104;28;1066;-80
2022/07/03 00:54:33;;;;;;;3.60;1.73;;;;;;;19.02;65.34;99641.97;346585;28;1216;-80
2022/07/03 00:54:51;;;;;;;3.28;1.77;;;;;;;19.02;65.40;99636.69;347901;28;1324;-80
2022/07/03 00:55:08;;;;;;;2.95;1.90;;;;;;;19.03;65.42;99638.38;347724;28;1417;-80
2022/07/03 00:55:22;;;;;;;2.63;1.75;;;;;;;19.03;65.34;99641.00;348017;28;1140;-80
2022/07/03 00:55:36;;;;;;;2.40;1.85;;;;;;;19.01;65.69;99639.44;347205;28;1513;-80
2022/07/03 00:55:49;;;;;;;3.25;1.92;;;;;;;18.99;65.70;99636.91;347806;28;1125;-80
2022/07/03 00:56:04;;;;;;;3.13;1.90;;;;;;;18.99;65.58;99636.91;346618;28;1700;-80
2022/07/03 00:56:22;;;;;;;2.95;2.10;;;;;;;18.98;65.58;99640.50;346713;28;1696;-80
2022/07/03 00:56:38;;;;;;;3.50;1.95;;;;;;;19.00;65.10;99638.59;347159;28;1990;-81
2022/07/03 00:56:52;;;;;;;2.90;1.65;;;;;;;19.01;64.80;99639.44;346718;28;2113;-80
2022/07/03 00:57:10;;;;;;;3.70;1.70;;;;;;;18.99;64.92;99642.16;346763;28;1717;-80
2022/07/03 00:57:27;;;;;;;3.70;1.83;;;;;;;18.99;64.90;99646.59;348021;28;1553;-80
2022/07/03 00:57:47;;;;;;;3.07;2.00;;;;;;;18.98;64.75;99640.50;346514;28;1031;-80
2022/07/03 00:57:59;;;;;;;1.83;1.70;;;;;;;18.98;64.81;99645.75;346977;28;1688;-80
2022/07/03 00:58:16;;;;;;;2.28;1.80;;;;;;;18.94;64.76;99639.84;347611;28;1432;-80
2022/07/03 00:58:28;;;;;;;3.73;2.00;;;;;;;18.95;65.06;99636.28;346768;28;1652;-80
2022/07/03 00:58:41;;;;;;;3.67;1.95;;;;;;;18.92;64.51;99640.91;346175;28;1057;-80
2022/07/03 00:58:56;;;;;;;2.45;1.90;;;;;;;18.90;65.07;99648.06;346762;28;1632;-80
2022/07/03 00:59:08;;;;;;;3.47;1.90;;;;;;;18.88;65.07;99644.69;347943;28;1163;-80
2022/07/03 00:59:20;;;;;;;2.97;1.80;;;;;;;18.88;65.06;99639.44;348380;28;1148;-80
2022/07/03 00:59:32;;;;;;;2.35;1.80;;;;;;;18.88;65.25;99634.16;346887;28;2068;-80
2022/07/03 00:59:44;;;;;;;3.00;1.88;;;;;;;18.88;65.11;99640.25;346690;28;1066;-80
2022/07/03 01:00:00;;;;;;;3.47;1.90;;;;;;;18.89;65.19;99641.09;348134;28;1432;-80
2022/07/03 01:00:14;;;;;;;3.33;1.80;;;;;;;18.88;65.90;99640.25;348134;28;2166;-80
2022/07/03 01:00:26;;;;;;;2.90;1.75;;;;;;;18.89;65.83;99641.09;347910;28;1065;-80
2022/07/03 01:00:40;;;;;;;2.80;1.80;;;;;;;18.89;65.62;99635.81;347873;28;1017;-80
2022/07/03 01:00:53;;;;;;;3.00;1.80;;;;;;;18.90;65.89;99640.16;345109;28;2142;-80
2022/07/03 01:01:05;;;;;;;2.80;1.90;;;;;;;18.89;65.86;99641.94;346228;28;1486;-80
2022/07/03 01:01:19;;;;;;;3.42;1.90;;;;;;;18.88;65.65;99644.69;346233;28;1095;-80
2022/07/03 01:01:34;;;;;;;2.58;1.80;;;;;;;18.88;65.79;99642.91;346455;28;1182;-80
2022/07/03 01:01:54;;;;;;;2.70;2.00;;;;;;;18.88;65.84;99639.44;346174;28;1646;-80
2022/07/03 01:02:10;;;;;;;3.30;2.00;;;;;;;18.88;65.63;99639.44;344788;28;6970;-80
2022/07/03 01:02:32;;;;;;;2.25;1.92;;;;;;;18.88;65.74;99644.69;346128;28;3713;-80
2022/07/03 01:02:44;;;;;;;5.20;1.90;;;;;;;18.87;66.04;99643.00;345535;28;3729;-80
2022/07/03 01:03:05;;;;;;;5.13;1.90;;;;;;;18.85;65.79;99635.19;346300;28;1750;-80
2022/07/03 01:03:21;;;;;;;4.47;1.80;;;;;;;18.87;65.79;99643.00;346680;28;1249;-79
2022/07/03 01:03:38;;;;;;;3.90;1.83;;;;;;;18.86;65.65;99641.31;347376;28;1711;-79
2022/07/03 01:04:03;;;;;;;3.15;1.90;;;;;;;18.86;65.83;99638.69;346279;28;1683;-80
2022/07/03 01:04:31;;;;;;;3.80;1.88;;;;;;;18.85;66.02;99642.25;345443;28;1295;-80
2022/07/03 01:04:46;;;;;;;3.45;2.00;;;;;;;18.84;65.88;99640.59;346416;28;1360;-81
2022/07/03 01:05:15;;;;;;;4.43;2.10;;;;;;;18.83;65.85;99638.88;346674;28;1569;-80
2022/07/03 01:05:39;;;;;;;3.22;2.00;;;;;;;18.81;65.87;99641.59;346618;28;1147;-80
2022/07/03 01:05:53;;;;;;;2.80;1.80;;;;;;;18.82;65.81;99645.09;346047;28;1760;-80
2022/07/03 01:06:14;;;;;;;2.30;1.77;;;;;;;18.83;65.73;99641.50;345214;28;1463;-80
2022/07/03 01:06:28;;;;;;;2.08;1.70;;;;;;;18.85;65.65;99647.53;346270;28;1069;-80
2022/07/03 01:07:00;;;;;;;4.22;1.75;;;;;;;18.86;65.41;99643.94;345416;28;1382;-80
2022/07/03 01:07:44;;;;;;;2.90;1.80;;;;;;;18.87;65.79;99645.63;347702;28;1620;-80
2022/07/03 01:08:23;;;;;;;3.20;1.80;;;;;;;18.84;65.93;99644.06;341153;28;1906;-80
2022/07/03 01:08:51;;;;;;;3.33;1.88;;;;;;;18.82;66.28;99645.09;342624;28;1223;-80
2022/07/03 01:09:05;;;;;;;2.72;1.80;;;;;;;18.82;66.27;99645.09;346684;28;1460;-80
2022/07/03 01:09:26;;;;;;;2.40;1.90;;;;;;;18.79;65.89;99645.25;348100;28;1169;-81
2022/07/03 01:09:59;;;;;;;3.55;1.83;;;;;;;18.77;66.01;99643.59;347579;28;1612;-80